sensor_id;sensor_type;location;lat;lon;timestamp;P1;durP1;ratioP1;P2;durP2;ratioP2
37097;SDS011;63608;49.572;12.348;2024-01-15T00:01:56;3.37;;;3.17;;
37097;SDS011;63608;49.572;12.348;2024-01-15T00:03:59;3.57;;;3.37;;
37097;SDS011;63608;49.572;12.348;2024-01-15T00:06:01;4.53;;;3.33;;
37097;SDS011;63608;49.572;12.348;2024-01-15T00:08:04;3.23;;;3.07;;
37097;SDS011;63608;49.572;12.348;2024-01-15T00:10:08;3.20;;;3.00;;
37097;SDS011;63608;49.572;12.348;2024-01-15T00:12:09;5.07;;;3.57;;
37097;SDS011;63608;49.572;12.348;2024-01-15T00:14:11;3.20;;;3.00;;
37097;SDS011;63608;49.572;12.348;2024-01-15T00:16:16;3.00;;;2.90;;
37097;SDS011;63608;49.572;12.348;2024-01-15T00:18:18;2.90;;;2.70;;
37097;SDS011;63608;49.572;12.348;2024-01-15T00:20:20;4.60;;;3.70;;
37097;SDS011;63608;49.572;12.348;2024-01-15T00:22:24;2.30;;;2.20;;
37097;SDS011;63608;49.572;12.348;2024-01-15T00:24:27;3.50;;;3.30;;
37097;SDS011;63608;49.572;12.348;2024-01-15T00:26:30;3.00;;;2.80;;
37097;SDS011;63608;49.572;12.348;2024-01-15T00:28:33;3.10;;;3.00;;
37097;SDS011;63608;49.572;12.348;2024-01-15T00:30:35;2.93;;;2.83;;
37097;SDS011;63608;49.572;12.348;2024-01-15T00:32:38;3.20;;;3.00;;
37097;SDS011;63608;49.572;12.348;2024-01-15T00:34:40;3.23;;;3.03;;
37097;SDS011;63608;49.572;12.348;2024-01-15T00:36:43;2.77;;;2.67;;
37097;SDS011;63608;49.572;12.348;2024-01-15T00:38:45;3.07;;;2.80;;
37097;SDS011;63608;49.572;12.348;2024-01-15T00:40:47;3.07;;;2.97;;
37097;SDS011;63608;49.572;12.348;2024-01-15T00:42:50;3.20;;;3.10;;
37097;SDS011;63608;49.572;12.348;2024-01-15T00:44:52;3.17;;;2.97;;
37097;SDS011;63608;49.572;12.348;2024-01-15T00:46:54;3.10;;;2.93;;
37097;SDS011;63608;49.572;12.348;2024-01-15T00:48:58;5.27;;;3.47;;
37097;SDS011;63608;49.572;12.348;2024-01-15T00:51:00;3.27;;;2.97;;
37097;SDS011;63608;49.572;12.348;2024-01-15T00:53:02;3.00;;;2.80;;
37097;SDS011;63608;49.572;12.348;2024-01-15T00:55:05;3.00;;;2.80;;
37097;SDS011;63608;49.572;12.348;2024-01-15T00:57:08;3.40;;;3.20;;
37097;SDS011;63608;49.572;12.348;2024-01-15T00:59:09;3.03;;;2.83;;
37097;SDS011;63608;49.572;12.348;2024-01-15T01:01:15;2.73;;;2.63;;
37097;SDS011;63608;49.572;12.348;2024-01-15T01:03:17;3.87;;;3.10;;
37097;SDS011;63608;49.572;12.348;2024-01-15T01:05:21;3.40;;;3.20;;
37097;SDS011;63608;49.572;12.348;2024-01-15T01:07:23;3.33;;;3.13;;
37097;SDS011;63608;49.572;12.348;2024-01-15T01:09:25;2.97;;;2.87;;
37097;SDS011;63608;49.572;12.348;2024-01-15T01:11:29;3.17;;;2.80;;
37097;SDS011;63608;49.572;12.348;2024-01-15T01:13:31;3.43;;;3.23;;
37097;SDS011;63608;49.572;12.348;2024-01-15T01:15:34;3.43;;;3.20;;
37097;SDS011;63608;49.572;12.348;2024-01-15T01:17:36;3.17;;;2.87;;
37097;SDS011;63608;49.572;12.348;2024-01-15T01:19:39;3.90;;;2.90;;
37097;SDS011;63608;49.572;12.348;2024-01-15T01:21:42;3.07;;;2.97;;
37097;SDS011;63608;49.572;12.348;2024-01-15T01:23:45;3.13;;;2.90;;
37097;SDS011;63608;49.572;12.348;2024-01-15T01:25:47;2.80;;;2.73;;
37097;SDS011;63608;49.572;12.348;2024-01-15T01:27:50;3.33;;;3.13;;
37097;SDS011;63608;49.572;12.348;2024-01-15T01:29:52;3.83;;;3.53;;
37097;SDS011;63608;49.572;12.348;2024-01-15T01:31:54;4.33;;;3.70;;
37097;SDS011;63608;49.572;12.348;2024-01-15T01:33:57;3.13;;;2.93;;
37097;SDS011;63608;49.572;12.348;2024-01-15T01:35:59;3.20;;;2.90;;
37097;SDS011;63608;49.572;12.348;2024-01-15T01:38:03;3.00;;;2.90;;
37097;SDS011;63608;49.572;12.348;2024-01-15T01:40:06;3.33;;;3.10;;
37097;SDS011;63608;49.572;12.348;2024-01-15T01:42:08;3.60;;;3.30;;
37097;SDS011;63608;49.572;12.348;2024-01-15T01:44:11;3.10;;;2.93;;
37097;SDS011;63608;49.572;12.348;2024-01-15T01:46:14;3.80;;;3.37;;
37097;SDS011;63608;49.572;12.348;2024-01-15T01:48:16;3.00;;;2.73;;
37097;SDS011;63608;49.572;12.348;2024-01-15T01:50:18;3.83;;;3.53;;
37097;SDS011;63608;49.572;12.348;2024-01-15T01:52:20;3.93;;;3.60;;
37097;SDS011;63608;49.572;12.348;2024-01-15T01:54:23;3.33;;;3.10;;
37097;SDS011;63608;49.572;12.348;2024-01-15T01:56:26;4.77;;;3.87;;
37097;SDS011;63608;49.572;12.348;2024-01-15T01:58:29;3.10;;;3.00;;
37097;SDS011;63608;49.572;12.348;2024-01-15T02:00:31;3.00;;;2.80;;
37097;SDS011;63608;49.572;12.348;2024-01-15T02:02:34;3.83;;;3.57;;
37097;SDS011;63608;49.572;12.348;2024-01-15T02:04:36;3.00;;;2.73;;
37097;SDS011;63608;49.572;12.348;2024-01-15T02:06:40;4.00;;;3.07;;
37097;SDS011;63608;49.572;12.348;2024-01-15T02:08:42;3.80;;;3.50;;
37097;SDS011;63608;49.572;12.348;2024-01-15T02:10:47;3.50;;;3.20;;
37097;SDS011;63608;49.572;12.348;2024-01-15T02:12:49;3.13;;;3.03;;
37097;SDS011;63608;49.572;12.348;2024-01-15T02:14:52;5.23;;;3.70;;
37097;SDS011;63608;49.572;12.348;2024-01-15T02:16:54;3.13;;;3.03;;
37097;SDS011;63608;49.572;12.348;2024-01-15T02:18:56;3.60;;;3.30;;
37097;SDS011;63608;49.572;12.348;2024-01-15T02:20:58;3.53;;;3.33;;
37097;SDS011;63608;49.572;12.348;2024-01-15T02:23:07;4.80;;;3.57;;
37097;SDS011;63608;49.572;12.348;2024-01-15T02:25:10;6.23;;;3.20;;
37097;SDS011;63608;49.572;12.348;2024-01-15T02:27:13;2.93;;;2.83;;
37097;SDS011;63608;49.572;12.348;2024-01-15T02:29:15;2.53;;;2.43;;
37097;SDS011;63608;49.572;12.348;2024-01-15T02:31:18;3.00;;;2.80;;
37097;SDS011;63608;49.572;12.348;2024-01-15T02:33:19;2.77;;;2.67;;
37097;SDS011;63608;49.572;12.348;2024-01-15T02:35:22;3.07;;;2.87;;
37097;SDS011;63608;49.572;12.348;2024-01-15T02:37:24;3.37;;;3.07;;
37097;SDS011;63608;49.572;12.348;2024-01-15T02:39:28;4.13;;;3.73;;
37097;SDS011;63608;49.572;12.348;2024-01-15T02:41:31;3.90;;;3.50;;
37097;SDS011;63608;49.572;12.348;2024-01-15T02:43:33;4.40;;;3.30;;
37097;SDS011;63608;49.572;12.348;2024-01-15T02:45:36;8.23;;;3.77;;
37097;SDS011;63608;49.572;12.348;2024-01-15T02:47:38;3.30;;;3.10;;
37097;SDS011;63608;49.572;12.348;2024-01-15T02:49:40;3.80;;;3.50;;
37097;SDS011;63608;49.572;12.348;2024-01-15T02:51:43;5.33;;;3.30;;
37097;SDS011;63608;49.572;12.348;2024-01-15T02:53:45;3.63;;;3.33;;
37097;SDS011;63608;49.572;12.348;2024-01-15T02:55:49;3.50;;;3.17;;
37097;SDS011;63608;49.572;12.348;2024-01-15T02:57:52;3.97;;;3.10;;
37097;SDS011;63608;49.572;12.348;2024-01-15T02:59:54;7.50;;;3.83;;
37097;SDS011;63608;49.572;12.348;2024-01-15T03:01:57;2.80;;;2.70;;
37097;SDS011;63608;49.572;12.348;2024-01-15T03:03:59;4.70;;;3.17;;
37097;SDS011;63608;49.572;12.348;2024-01-15T03:06:02;3.53;;;3.23;;
37097;SDS011;63608;49.572;12.348;2024-01-15T03:08:05;2.80;;;2.70;;
37097;SDS011;63608;49.572;12.348;2024-01-15T03:10:08;3.27;;;3.07;;
37097;SDS011;63608;49.572;12.348;2024-01-15T03:12:11;3.20;;;3.03;;
37097;SDS011;63608;49.572;12.348;2024-01-15T03:14:13;6.33;;;3.50;;
37097;SDS011;63608;49.572;12.348;2024-01-15T03:16:16;2.97;;;2.63;;
37097;SDS011;63608;49.572;12.348;2024-01-15T03:18:20;3.40;;;3.20;;
37097;SDS011;63608;49.572;12.348;2024-01-15T03:20:21;3.50;;;3.20;;
37097;SDS011;63608;49.572;12.348;2024-01-15T03:22:24;3.00;;;2.80;;
37097;SDS011;63608;49.572;12.348;2024-01-15T03:24:26;3.23;;;2.93;;
37097;SDS011;63608;49.572;12.348;2024-01-15T03:26:29;3.37;;;3.07;;
37097;SDS011;63608;49.572;12.348;2024-01-15T03:28:32;2.80;;;2.70;;
37097;SDS011;63608;49.572;12.348;2024-01-15T03:30:34;4.57;;;3.60;;
37097;SDS011;63608;49.572;12.348;2024-01-15T03:32:37;3.00;;;2.80;;
37097;SDS011;63608;49.572;12.348;2024-01-15T03:34:40;4.07;;;2.90;;
37097;SDS011;63608;49.572;12.348;2024-01-15T03:36:41;2.70;;;2.60;;
37097;SDS011;63608;49.572;12.348;2024-01-15T03:38:43;3.20;;;3.00;;
37097;SDS011;63608;49.572;12.348;2024-01-15T03:40:46;3.80;;;3.07;;
37097;SDS011;63608;49.572;12.348;2024-01-15T03:42:48;3.43;;;3.00;;
37097;SDS011;63608;49.572;12.348;2024-01-15T03:44:51;2.80;;;2.70;;
37097;SDS011;63608;49.572;12.348;2024-01-15T03:46:54;4.10;;;3.20;;
37097;SDS011;63608;49.572;12.348;2024-01-15T03:48:56;3.20;;;3.00;;
37097;SDS011;63608;49.572;12.348;2024-01-15T03:50:59;3.40;;;3.07;;
37097;SDS011;63608;49.572;12.348;2024-01-15T03:53:01;2.63;;;2.53;;
37097;SDS011;63608;49.572;12.348;2024-01-15T03:55:04;3.00;;;2.70;;
37097;SDS011;63608;49.572;12.348;2024-01-15T03:57:07;2.87;;;2.67;;
37097;SDS011;63608;49.572;12.348;2024-01-15T03:59:10;5.60;;;3.30;;
37097;SDS011;63608;49.572;12.348;2024-01-15T04:01:14;2.60;;;2.50;;
37097;SDS011;63608;49.572;12.348;2024-01-15T04:03:16;2.77;;;2.57;;
37097;SDS011;63608;49.572;12.348;2024-01-15T04:05:19;3.13;;;3.03;;
37097;SDS011;63608;49.572;12.348;2024-01-15T04:07:21;3.30;;;3.10;;
37097;SDS011;63608;49.572;12.348;2024-01-15T04:09:24;2.80;;;2.60;;
37097;SDS011;63608;49.572;12.348;2024-01-15T04:11:26;2.87;;;2.63;;
37097;SDS011;63608;49.572;12.348;2024-01-15T04:13:32;2.60;;;2.50;;
37097;SDS011;63608;49.572;12.348;2024-01-15T04:15:33;4.30;;;3.10;;
37097;SDS011;63608;49.572;12.348;2024-01-15T04:17:38;3.33;;;3.13;;
37097;SDS011;63608;49.572;12.348;2024-01-15T04:19:40;3.40;;;3.03;;
37097;SDS011;63608;49.572;12.348;2024-01-15T04:21:45;2.63;;;2.53;;
37097;SDS011;63608;49.572;12.348;2024-01-15T04:23:48;2.90;;;2.70;;
37097;SDS011;63608;49.572;12.348;2024-01-15T04:25:49;2.83;;;2.73;;
37097;SDS011;63608;49.572;12.348;2024-01-15T04:27:52;2.70;;;2.60;;
37097;SDS011;63608;49.572;12.348;2024-01-15T04:29:54;2.53;;;2.43;;
37097;SDS011;63608;49.572;12.348;2024-01-15T04:31:57;2.67;;;2.47;;
37097;SDS011;63608;49.572;12.348;2024-01-15T04:34:01;2.67;;;2.57;;
37097;SDS011;63608;49.572;12.348;2024-01-15T04:36:04;2.80;;;2.70;;
37097;SDS011;63608;49.572;12.348;2024-01-15T04:38:07;2.27;;;2.17;;
37097;SDS011;63608;49.572;12.348;2024-01-15T04:40:09;2.30;;;2.27;;
37097;SDS011;63608;49.572;12.348;2024-01-15T04:42:12;2.20;;;2.10;;
37097;SDS011;63608;49.572;12.348;2024-01-15T04:44:15;2.77;;;2.57;;
37097;SDS011;63608;49.572;12.348;2024-01-15T04:46:17;2.47;;;2.30;;
37097;SDS011;63608;49.572;12.348;2024-01-15T04:48:20;2.73;;;2.60;;
37097;SDS011;63608;49.572;12.348;2024-01-15T04:50:24;2.90;;;2.80;;
37097;SDS011;63608;49.572;12.348;2024-01-15T04:52:27;2.50;;;2.40;;
37097;SDS011;63608;49.572;12.348;2024-01-15T04:54:29;2.63;;;2.40;;
37097;SDS011;63608;49.572;12.348;2024-01-15T04:56:32;2.30;;;2.23;;
37097;SDS011;63608;49.572;12.348;2024-01-15T04:58:34;2.57;;;2.47;;
37097;SDS011;63608;49.572;12.348;2024-01-15T05:00:37;2.50;;;2.40;;
37097;SDS011;63608;49.572;12.348;2024-01-15T05:02:39;2.63;;;2.40;;
37097;SDS011;63608;49.572;12.348;2024-01-15T05:04:42;2.57;;;2.37;;
37097;SDS011;63608;49.572;12.348;2024-01-15T05:06:46;2.70;;;2.50;;
37097;SDS011;63608;49.572;12.348;2024-01-15T05:08:48;2.43;;;2.33;;
37097;SDS011;63608;49.572;12.348;2024-01-15T05:10:51;2.23;;;2.13;;
37097;SDS011;63608;49.572;12.348;2024-01-15T05:12:53;2.13;;;2.03;;
37097;SDS011;63608;49.572;12.348;2024-01-15T05:14:56;2.03;;;1.93;;
37097;SDS011;63608;49.572;12.348;2024-01-15T05:16:58;2.43;;;2.33;;
37097;SDS011;63608;49.572;12.348;2024-01-15T05:19:01;2.53;;;2.37;;
37097;SDS011;63608;49.572;12.348;2024-01-15T05:21:03;2.70;;;2.50;;
37097;SDS011;63608;49.572;12.348;2024-01-15T05:23:06;2.60;;;2.40;;
37097;SDS011;63608;49.572;12.348;2024-01-15T05:25:09;2.50;;;2.40;;
37097;SDS011;63608;49.572;12.348;2024-01-15T05:27:12;2.67;;;2.57;;
37097;SDS011;63608;49.572;12.348;2024-01-15T05:29:13;2.50;;;2.37;;
37097;SDS011;63608;49.572;12.348;2024-01-15T05:31:15;2.20;;;2.10;;
37097;SDS011;63608;49.572;12.348;2024-01-15T05:33:18;2.00;;;2.00;;
37097;SDS011;63608;49.572;12.348;2024-01-15T05:35:20;1.93;;;1.87;;
37097;SDS011;63608;49.572;12.348;2024-01-15T05:37:23;2.30;;;2.20;;
37097;SDS011;63608;49.572;12.348;2024-01-15T05:39:26;2.50;;;2.40;;
37097;SDS011;63608;49.572;12.348;2024-01-15T05:41:28;2.73;;;2.60;;
37097;SDS011;63608;49.572;12.348;2024-01-15T05:43:30;2.50;;;2.40;;
37097;SDS011;63608;49.572;12.348;2024-01-15T05:45:33;2.50;;;2.37;;
37097;SDS011;63608;49.572;12.348;2024-01-15T05:47:36;2.37;;;2.17;;
37097;SDS011;63608;49.572;12.348;2024-01-15T05:49:39;1.80;;;1.80;;
37097;SDS011;63608;49.572;12.348;2024-01-15T05:51:41;2.23;;;2.17;;
37097;SDS011;63608;49.572;12.348;2024-01-15T05:53:43;2.57;;;2.47;;
37097;SDS011;63608;49.572;12.348;2024-01-15T05:55:47;2.50;;;2.30;;
37097;SDS011;63608;49.572;12.348;2024-01-15T05:57:50;2.57;;;2.37;;
37097;SDS011;63608;49.572;12.348;2024-01-15T05:59:53;2.20;;;2.10;;
37097;SDS011;63608;49.572;12.348;2024-01-15T06:01:55;2.23;;;2.13;;
37097;SDS011;63608;49.572;12.348;2024-01-15T06:03:57;2.27;;;2.00;;
37097;SDS011;63608;49.572;12.348;2024-01-15T06:05:59;2.23;;;2.13;;
37097;SDS011;63608;49.572;12.348;2024-01-15T06:08:02;2.83;;;2.63;;
37097;SDS011;63608;49.572;12.348;2024-01-15T06:10:05;2.60;;;2.40;;
37097;SDS011;63608;49.572;12.348;2024-01-15T06:12:10;2.13;;;2.13;;
37097;SDS011;63608;49.572;12.348;2024-01-15T06:14:12;2.13;;;2.10;;
37097;SDS011;63608;49.572;12.348;2024-01-15T06:16:14;2.60;;;2.50;;
37097;SDS011;63608;49.572;12.348;2024-01-15T06:18:17;2.37;;;2.27;;
37097;SDS011;63608;49.572;12.348;2024-01-15T06:20:20;2.13;;;2.03;;
37097;SDS011;63608;49.572;12.348;2024-01-15T06:22:22;2.53;;;2.43;;
37097;SDS011;63608;49.572;12.348;2024-01-15T06:24:25;2.50;;;2.30;;
37097;SDS011;63608;49.572;12.348;2024-01-15T06:26:27;3.00;;;2.27;;
37097;SDS011;63608;49.572;12.348;2024-01-15T06:28:31;2.10;;;2.07;;
37097;SDS011;63608;49.572;12.348;2024-01-15T06:30:34;2.43;;;2.30;;
37097;SDS011;63608;49.572;12.348;2024-01-15T06:32:37;2.07;;;1.97;;
37097;SDS011;63608;49.572;12.348;2024-01-15T06:34:39;1.73;;;1.73;;
37097;SDS011;63608;49.572;12.348;2024-01-15T06:36:42;2.00;;;2.00;;
37097;SDS011;63608;49.572;12.348;2024-01-15T06:38:45;2.10;;;2.10;;
37097;SDS011;63608;49.572;12.348;2024-01-15T06:40:47;2.00;;;1.90;;
37097;SDS011;63608;49.572;12.348;2024-01-15T06:42:50;1.90;;;1.80;;
37097;SDS011;63608;49.572;12.348;2024-01-15T06:44:53;2.37;;;2.17;;
37097;SDS011;63608;49.572;12.348;2024-01-15T06:46:55;2.07;;;1.97;;
37097;SDS011;63608;49.572;12.348;2024-01-15T06:49:02;1.70;;;1.60;;
37097;SDS011;63608;49.572;12.348;2024-01-15T06:51:05;2.20;;;2.10;;
37097;SDS011;63608;49.572;12.348;2024-01-15T06:53:07;1.93;;;1.93;;
37097;SDS011;63608;49.572;12.348;2024-01-15T06:55:10;2.50;;;2.30;;
37097;SDS011;63608;49.572;12.348;2024-01-15T06:57:13;2.00;;;1.90;;
37097;SDS011;63608;49.572;12.348;2024-01-15T06:59:15;1.80;;;1.80;;
37097;SDS011;63608;49.572;12.348;2024-01-15T07:01:19;1.93;;;1.83;;
37097;SDS011;63608;49.572;12.348;2024-01-15T07:03:22;2.20;;;2.00;;
37097;SDS011;63608;49.572;12.348;2024-01-15T07:05:23;2.10;;;2.00;;
37097;SDS011;63608;49.572;12.348;2024-01-15T07:07:26;2.10;;;2.00;;
37097;SDS011;63608;49.572;12.348;2024-01-15T07:09:30;4.30;;;2.87;;
37097;SDS011;63608;49.572;12.348;2024-01-15T07:11:32;2.10;;;2.00;;
37097;SDS011;63608;49.572;12.348;2024-01-15T07:13:36;1.77;;;1.77;;
37097;SDS011;63608;49.572;12.348;2024-01-15T07:15:38;1.97;;;1.97;;
37097;SDS011;63608;49.572;12.348;2024-01-15T07:17:42;2.10;;;2.00;;
37097;SDS011;63608;49.572;12.348;2024-01-15T07:19:45;2.00;;;1.90;;
37097;SDS011;63608;49.572;12.348;2024-01-15T07:21:48;2.00;;;2.00;;
37097;SDS011;63608;49.572;12.348;2024-01-15T07:23:50;2.20;;;2.10;;
37097;SDS011;63608;49.572;12.348;2024-01-15T07:25:53;1.40;;;1.40;;
37097;SDS011;63608;49.572;12.348;2024-01-15T07:27:55;1.87;;;1.87;;
37097;SDS011;63608;49.572;12.348;2024-01-15T07:29:58;2.80;;;2.23;;
37097;SDS011;63608;49.572;12.348;2024-01-15T07:32:01;1.90;;;1.90;;
37097;SDS011;63608;49.572;12.348;2024-01-15T07:34:05;1.87;;;1.80;;
37097;SDS011;63608;49.572;12.348;2024-01-15T07:36:08;1.30;;;1.30;;
37097;SDS011;63608;49.572;12.348;2024-01-15T07:38:10;1.97;;;1.97;;
37097;SDS011;63608;49.572;12.348;2024-01-15T07:40:13;2.07;;;1.97;;
37097;SDS011;63608;49.572;12.348;2024-01-15T07:42:16;2.00;;;1.90;;
37097;SDS011;63608;49.572;12.348;2024-01-15T07:44:19;2.40;;;2.30;;
37097;SDS011;63608;49.572;12.348;2024-01-15T07:46:21;1.70;;;1.70;;
37097;SDS011;63608;49.572;12.348;2024-01-15T07:48:26;1.80;;;1.80;;
37097;SDS011;63608;49.572;12.348;2024-01-15T07:50:30;2.23;;;2.23;;
37097;SDS011;63608;49.572;12.348;2024-01-15T07:52:33;1.90;;;1.90;;
37097;SDS011;63608;49.572;12.348;2024-01-15T07:54:35;2.30;;;2.20;;
37097;SDS011;63608;49.572;12.348;2024-01-15T07:56:53;1.63;;;1.63;;
37097;SDS011;63608;49.572;12.348;2024-01-15T07:58:56;1.60;;;1.60;;
37097;SDS011;63608;49.572;12.348;2024-01-15T08:00:58;2.17;;;2.07;;
37097;SDS011;63608;49.572;12.348;2024-01-15T08:03:01;2.27;;;2.07;;
37097;SDS011;63608;49.572;12.348;2024-01-15T08:05:04;2.10;;;2.03;;
37097;SDS011;63608;49.572;12.348;2024-01-15T08:07:08;1.80;;;1.70;;
37097;SDS011;63608;49.572;12.348;2024-01-15T08:09:11;2.00;;;1.90;;
37097;SDS011;63608;49.572;12.348;2024-01-15T08:11:14;1.60;;;1.60;;
37097;SDS011;63608;49.572;12.348;2024-01-15T08:13:17;2.10;;;2.00;;
37097;SDS011;63608;49.572;12.348;2024-01-15T08:15:20;2.17;;;2.07;;
37097;SDS011;63608;49.572;12.348;2024-01-15T08:17:23;1.80;;;1.70;;
37097;SDS011;63608;49.572;12.348;2024-01-15T08:19:28;1.80;;;1.80;;
37097;SDS011;63608;49.572;12.348;2024-01-15T08:21:30;2.17;;;2.07;;
37097;SDS011;63608;49.572;12.348;2024-01-15T08:23:35;1.80;;;1.70;;
37097;SDS011;63608;49.572;12.348;2024-01-15T08:25:38;1.70;;;1.70;;
37097;SDS011;63608;49.572;12.348;2024-01-15T08:27:40;1.90;;;1.90;;
37097;SDS011;63608;49.572;12.348;2024-01-15T08:29:43;2.00;;;2.00;;
37097;SDS011;63608;49.572;12.348;2024-01-15T08:31:45;2.20;;;2.10;;
37097;SDS011;63608;49.572;12.348;2024-01-15T08:33:47;1.70;;;1.70;;
37097;SDS011;63608;49.572;12.348;2024-01-15T08:35:49;1.90;;;1.90;;
37097;SDS011;63608;49.572;12.348;2024-01-15T08:37:52;1.80;;;1.80;;
37097;SDS011;63608;49.572;12.348;2024-01-15T08:39:56;2.30;;;2.20;;
37097;SDS011;63608;49.572;12.348;2024-01-15T08:41:58;2.20;;;2.10;;
37097;SDS011;63608;49.572;12.348;2024-01-15T08:44:01;1.83;;;1.83;;
37097;SDS011;63608;49.572;12.348;2024-01-15T08:46:04;1.90;;;1.80;;
37097;SDS011;63608;49.572;12.348;2024-01-15T08:48:07;2.20;;;2.10;;
37097;SDS011;63608;49.572;12.348;2024-01-15T08:50:08;2.03;;;1.93;;
37097;SDS011;63608;49.572;12.348;2024-01-15T08:52:11;1.33;;;1.33;;
37097;SDS011;63608;49.572;12.348;2024-01-15T08:54:15;1.70;;;1.60;;
37097;SDS011;63608;49.572;12.348;2024-01-15T08:56:20;1.70;;;1.70;;
37097;SDS011;63608;49.572;12.348;2024-01-15T08:58:23;1.73;;;1.73;;
37097;SDS011;63608;49.572;12.348;2024-01-15T09:00:26;3.67;;;3.47;;
37097;SDS011;63608;49.572;12.348;2024-01-15T09:02:28;2.57;;;2.47;;
37097;SDS011;63608;49.572;12.348;2024-01-15T09:04:31;1.70;;;1.60;;
37097;SDS011;63608;49.572;12.348;2024-01-15T09:06:33;1.90;;;1.80;;
37097;SDS011;63608;49.572;12.348;2024-01-15T09:08:36;1.30;;;1.30;;
37097;SDS011;63608;49.572;12.348;2024-01-15T09:10:37;1.83;;;1.73;;
37097;SDS011;63608;49.572;12.348;2024-01-15T09:12:42;2.13;;;2.07;;
37097;SDS011;63608;49.572;12.348;2024-01-15T09:14:45;1.70;;;1.70;;
37097;SDS011;63608;49.572;12.348;2024-01-15T09:16:46;3.07;;;2.10;;
37097;SDS011;63608;49.572;12.348;2024-01-15T09:18:49;1.57;;;1.57;;
37097;SDS011;63608;49.572;12.348;2024-01-15T09:20:52;1.80;;;1.70;;
37097;SDS011;63608;49.572;12.348;2024-01-15T09:22:54;1.80;;;1.80;;
37097;SDS011;63608;49.572;12.348;2024-01-15T09:24:56;1.57;;;1.57;;
37097;SDS011;63608;49.572;12.348;2024-01-15T09:26:59;1.77;;;1.67;;
37097;SDS011;63608;49.572;12.348;2024-01-15T09:29:04;2.33;;;2.00;;
37097;SDS011;63608;49.572;12.348;2024-01-15T09:31:06;1.90;;;1.80;;
37097;SDS011;63608;49.572;12.348;2024-01-15T09:33:09;1.60;;;1.60;;
37097;SDS011;63608;49.572;12.348;2024-01-15T09:35:12;1.30;;;1.30;;
37097;SDS011;63608;49.572;12.348;2024-01-15T09:37:14;1.97;;;1.97;;
37097;SDS011;63608;49.572;12.348;2024-01-15T09:39:17;1.73;;;1.63;;
37097;SDS011;63608;49.572;12.348;2024-01-15T09:41:20;1.50;;;1.50;;
37097;SDS011;63608;49.572;12.348;2024-01-15T09:43:22;1.40;;;1.40;;
37097;SDS011;63608;49.572;12.348;2024-01-15T09:45:27;1.57;;;1.57;;
37097;SDS011;63608;49.572;12.348;2024-01-15T09:47:29;2.77;;;1.90;;
37097;SDS011;63608;49.572;12.348;2024-01-15T09:49:32;1.90;;;1.90;;
37097;SDS011;63608;49.572;12.348;2024-01-15T09:51:34;1.20;;;1.20;;
37097;SDS011;63608;49.572;12.348;2024-01-15T09:53:38;2.33;;;2.23;;
37097;SDS011;63608;49.572;12.348;2024-01-15T09:55:40;1.30;;;1.30;;
37097;SDS011;63608;49.572;12.348;2024-01-15T09:57:43;1.70;;;1.60;;
37097;SDS011;63608;49.572;12.348;2024-01-15T09:59:47;1.60;;;1.60;;
37097;SDS011;63608;49.572;12.348;2024-01-15T10:01:52;1.60;;;1.60;;
37097;SDS011;63608;49.572;12.348;2024-01-15T10:03:55;1.43;;;1.43;;
37097;SDS011;63608;49.572;12.348;2024-01-15T10:05:57;1.50;;;1.40;;
37097;SDS011;63608;49.572;12.348;2024-01-15T10:08:02;1.40;;;1.40;;
37097;SDS011;63608;49.572;12.348;2024-01-15T10:10:05;1.40;;;1.40;;
37097;SDS011;63608;49.572;12.348;2024-01-15T10:12:09;2.10;;;2.00;;
37097;SDS011;63608;49.572;12.348;2024-01-15T10:14:12;2.57;;;2.00;;
37097;SDS011;63608;49.572;12.348;2024-01-15T10:16:15;1.30;;;1.30;;
37097;SDS011;63608;49.572;12.348;2024-01-15T10:18:19;1.40;;;1.40;;
37097;SDS011;63608;49.572;12.348;2024-01-15T10:20:21;1.77;;;1.67;;
37097;SDS011;63608;49.572;12.348;2024-01-15T10:22:24;1.50;;;1.50;;
37097;SDS011;63608;49.572;12.348;2024-01-15T10:24:26;1.33;;;1.33;;
37097;SDS011;63608;49.572;12.348;2024-01-15T10:26:30;1.60;;;1.60;;
37097;SDS011;63608;49.572;12.348;2024-01-15T10:28:33;1.30;;;1.30;;
37097;SDS011;63608;49.572;12.348;2024-01-15T10:30:35;1.73;;;1.73;;
37097;SDS011;63608;49.572;12.348;2024-01-15T10:32:38;1.40;;;1.40;;
37097;SDS011;63608;49.572;12.348;2024-01-15T10:34:43;1.30;;;1.30;;
37097;SDS011;63608;49.572;12.348;2024-01-15T10:36:45;1.53;;;1.53;;
37097;SDS011;63608;49.572;12.348;2024-01-15T10:38:52;1.70;;;1.70;;
37097;SDS011;63608;49.572;12.348;2024-01-15T10:41:00;1.20;;;1.20;;
37097;SDS011;63608;49.572;12.348;2024-01-15T10:43:02;2.70;;;2.30;;
37097;SDS011;63608;49.572;12.348;2024-01-15T10:45:06;1.70;;;1.70;;
37097;SDS011;63608;49.572;12.348;2024-01-15T10:47:09;1.47;;;1.47;;
37097;SDS011;63608;49.572;12.348;2024-01-15T10:49:12;1.30;;;1.30;;
37097;SDS011;63608;49.572;12.348;2024-01-15T10:51:16;1.73;;;1.63;;
37097;SDS011;63608;49.572;12.348;2024-01-15T10:53:19;2.00;;;1.90;;
37097;SDS011;63608;49.572;12.348;2024-01-15T10:55:21;1.20;;;1.20;;
37097;SDS011;63608;49.572;12.348;2024-01-15T10:57:25;1.43;;;1.43;;
37097;SDS011;63608;49.572;12.348;2024-01-15T10:59:28;1.60;;;1.60;;
37097;SDS011;63608;49.572;12.348;2024-01-15T11:01:31;1.43;;;1.43;;
37097;SDS011;63608;49.572;12.348;2024-01-15T11:03:35;1.43;;;1.43;;
37097;SDS011;63608;49.572;12.348;2024-01-15T11:05:38;1.53;;;1.43;;
37097;SDS011;63608;49.572;12.348;2024-01-15T11:07:42;1.40;;;1.30;;
37097;SDS011;63608;49.572;12.348;2024-01-15T11:09:45;1.47;;;1.40;;
37097;SDS011;63608;49.572;12.348;2024-01-15T11:11:50;1.20;;;1.20;;
37097;SDS011;63608;49.572;12.348;2024-01-15T11:13:54;1.50;;;1.50;;
37097;SDS011;63608;49.572;12.348;2024-01-15T11:15:57;1.60;;;1.50;;
37097;SDS011;63608;49.572;12.348;2024-01-15T11:18:01;1.53;;;1.53;;
37097;SDS011;63608;49.572;12.348;2024-01-15T11:20:06;1.40;;;1.40;;
37097;SDS011;63608;49.572;12.348;2024-01-15T11:22:09;1.60;;;1.60;;
37097;SDS011;63608;49.572;12.348;2024-01-15T11:24:14;1.23;;;1.23;;
37097;SDS011;63608;49.572;12.348;2024-01-15T11:26:35;1.40;;;1.40;;
37097;SDS011;63608;49.572;12.348;2024-01-15T11:30:59;2.10;;;1.70;;
37097;SDS011;63608;49.572;12.348;2024-01-15T11:33:02;1.40;;;1.40;;
37097;SDS011;63608;49.572;12.348;2024-01-15T11:35:07;1.80;;;1.73;;
37097;SDS011;63608;49.572;12.348;2024-01-15T11:37:10;1.50;;;1.50;;
37097;SDS011;63608;49.572;12.348;2024-01-15T11:41:45;1.70;;;1.70;;
37097;SDS011;63608;49.572;12.348;2024-01-15T11:43:47;2.97;;;2.87;;
37097;SDS011;63608;49.572;12.348;2024-01-15T11:45:50;1.50;;;1.50;;
37097;SDS011;63608;49.572;12.348;2024-01-15T11:48:03;1.23;;;1.23;;
37097;SDS011;63608;49.572;12.348;2024-01-15T11:50:12;1.60;;;1.60;;
37097;SDS011;63608;49.572;12.348;2024-01-15T11:52:15;1.70;;;1.60;;
37097;SDS011;63608;49.572;12.348;2024-01-15T11:54:18;1.97;;;1.97;;
37097;SDS011;63608;49.572;12.348;2024-01-15T11:56:23;1.70;;;1.60;;
37097;SDS011;63608;49.572;12.348;2024-01-15T11:58:26;1.23;;;1.23;;
37097;SDS011;63608;49.572;12.348;2024-01-15T12:00:29;1.40;;;1.40;;
37097;SDS011;63608;49.572;12.348;2024-01-15T12:02:30;1.20;;;1.20;;
37097;SDS011;63608;49.572;12.348;2024-01-15T12:04:33;1.50;;;1.50;;
37097;SDS011;63608;49.572;12.348;2024-01-15T12:06:36;1.50;;;1.40;;
37097;SDS011;63608;49.572;12.348;2024-01-15T12:08:38;1.23;;;1.23;;
37097;SDS011;63608;49.572;12.348;2024-01-15T12:10:41;1.40;;;1.40;;
37097;SDS011;63608;49.572;12.348;2024-01-15T12:12:50;1.13;;;1.13;;
37097;SDS011;63608;49.572;12.348;2024-01-15T12:14:57;1.30;;;1.30;;